KOPL/OPL METAR and TAF weather

Enter ICAO airport designator
Station Type Date Time Source
KOPL METAR 2020/02/28 08:15 UTC NOAA

KOPL 280815Z AUTO 00000KT 10SM CLR 02/01 A3033 RMK AO2 T00170008


Station Type Date Time Source
KOPL Decoded METAR 2020/02/28 08:15 UTC NOAA

Station name not available
Feb 28, 2020 - 03:15 AM EST / 2020.02.28 0815 UTC
Wind: Calm:0
Visibility: 10 mile(s):0
Sky conditions: clear
Temperature: 35.1 F (1.7 C)
Dew Point: 33.4 F (0.8 C)
Relative Humidity: 93%
Pressure (altimeter): 30.33 in. Hg (1027 hPa)
ob: KOPL 280815Z AUTO 00000KT 10SM CLR 02/01 A3033 RMK AO2 T00170008
cycle: 8

Station Type Date Time Source
KOPL TAF UTC NOAA

Error!

Example: see airport list